Time;durP1;ratioP1;P1;durP2;ratioP2;P2;SDS_P1;SDS_P2;PMS_P1;PMS_P2;Temp;Humidity;BMP_temperature;BMP_pressure;BME280_temperature;BME280_humidity;BME280_pressure;Samples;Min_cycle;Max_cycle;Signal;HPM_P1;HPM_P2
2023/04/27 00:01:59;;;;;;;3.05;2.33;;;;;;;;;;5078349;28;20028;-86
2023/04/27 00:04:25;;;;;;;7.57;2.60;;;;;;;;;;5087742;28;20106;-85
2023/04/27 00:06:51;;;;;;;5.93;2.50;;;;;;;;;;5066858;28;20036;-86
2023/04/27 00:09:16;;;;;;;3.63;2.40;;;;;;;;;;5069956;28;20415;-85
2023/04/27 00:11:42;;;;;;;5.93;3.17;;;;;;;;;;5072397;28;20036;-85
2023/04/27 00:14:07;;;;;;;4.68;2.50;;;;;;;;;;5072233;28;20043;-84
2023/04/27 00:16:32;;;;;;;4.63;2.78;;;;;;;;;;5072641;28;20434;-86
2023/04/27 00:18:59;;;;;;;3.50;2.50;;;;;;;;;;5082354;28;20932;-84
2023/04/27 00:21:25;;;;;;;5.65;2.88;;;;;;;;;;5073091;28;20036;-85
2023/04/27 00:23:51;;;;;;;5.72;2.75;;;;;;;;;;5072746;28;20497;-86
2023/04/27 00:26:16;;;;;;;6.03;3.00;;;;;;;;;;5076391;28;20059;-86
2023/04/27 00:28:46;;;;;;;6.13;2.88;;;;;;;;;;5061138;28;20095;-85
2023/04/27 00:31:12;;;;;;;9.63;2.90;;;;;;;;;;5064119;28;20073;-85
2023/04/27 00:33:37;;;;;;;4.60;2.30;;;;;;;;;;5066889;28;20505;-85
2023/04/27 00:36:03;;;;;;;4.97;2.85;;;;;;;;;;5075370;28;20033;-85
2023/04/27 00:38:29;;;;;;;4.68;3.10;;;;;;;;;;5080014;28;20043;-85
2023/04/27 00:41:05;;;;;;;8.80;4.80;;;;;;;;;;5083416;28;20103;-86
2023/04/27 00:43:31;;;;;;;9.13;4.00;;;;;;;;;;5065595;28;20032;-87
2023/04/27 00:45:58;;;;;;;5.82;3.55;;;;;;;;;;5068348;28;20044;-86
2023/04/27 00:48:24;;;;;;;4.57;2.85;;;;;;;;;;5070704;28;20126;-86
2023/04/27 00:50:50;;;;;;;4.72;2.60;;;;;;;;;;5083317;28;20032;-86
2023/04/27 00:53:15;;;;;;;4.90;3.00;;;;;;;;;;5091551;28;20051;-85
2023/04/27 00:55:41;;;;;;;3.67;2.80;;;;;;;;;;5055166;28;20100;-84
2023/04/27 00:58:07;;;;;;;6.10;2.90;;;;;;;;;;5078517;28;20028;-84
2023/04/27 01:00:35;;;;;;;4.30;2.80;;;;;;;;;;5082426;28;20044;-85
2023/04/27 01:03:01;;;;;;;4.10;2.90;;;;;;;;;;5068689;28;20051;-86
2023/04/27 01:05:27;;;;;;;6.32;2.85;;;;;;;;;;5088203;28;20056;-86
2023/04/27 01:07:54;;;;;;;4.00;2.88;;;;;;;;;;5078353;28;20037;-84
2023/04/27 01:10:19;;;;;;;6.30;3.10;;;;;;;;;;5074044;28;20426;-86
2023/04/27 01:12:45;;;;;;;7.18;3.40;;;;;;;;;;5049837;28;20013;-85
2023/04/27 01:15:10;;;;;;;5.07;3.15;;;;;;;;;;5053980;28;20028;-85
2023/04/27 01:17:37;;;;;;;8.00;3.22;;;;;;;;;;5074190;28;20062;-84
2023/04/27 01:20:06;;;;;;;4.45;2.92;;;;;;;;;;5073522;28;20498;-83
2023/04/27 01:22:32;;;;;;;5.57;3.00;;;;;;;;;;5062737;28;20533;-84
2023/04/27 01:24:57;;;;;;;6.63;3.30;;;;;;;;;;5047165;28;20033;-84
2023/04/27 01:27:23;;;;;;;6.07;3.17;;;;;;;;;;5049392;28;20063;-84
2023/04/27 01:29:48;;;;;;;6.97;3.53;;;;;;;;;;5072250;28;20431;-85
2023/04/27 01:32:14;;;;;;;4.18;2.95;;;;;;;;;;5071985;28;20033;-84
2023/04/27 01:34:39;;;;;;;11.43;3.13;;;;;;;;;;5058060;28;20151;-83
2023/04/27 01:37:05;;;;;;;3.95;2.90;;;;;;;;;;5066476;28;20033;-85
2023/04/27 01:39:31;;;;;;;5.63;3.00;;;;;;;;;;5051804;28;20036;-85
2023/04/27 01:41:56;;;;;;;6.30;3.08;;;;;;;;;;5055755;28;20033;-84
2023/04/27 01:44:22;;;;;;;5.72;3.10;;;;;;;;;;5062526;28;20032;-85
2023/04/27 01:46:48;;;;;;;6.32;3.40;;;;;;;;;;5065140;28;20032;-85
2023/04/27 01:49:14;;;;;;;5.70;3.00;;;;;;;;;;5063209;28;20093;-83
2023/04/27 01:51:39;;;;;;;6.05;3.13;;;;;;;;;;5064092;28;20029;-82
2023/04/27 01:54:05;;;;;;;10.55;3.85;;;;;;;;;;5072052;28;20198;-86
2023/04/27 01:56:31;;;;;;;4.43;2.92;;;;;;;;;;5073239;28;20048;-83
2023/04/27 01:58:56;;;;;;;3.90;2.90;;;;;;;;;;5063013;28;20032;-84
2023/04/27 02:01:23;;;;;;;3.95;2.72;;;;;;;;;;5061468;28;20386;-86
2023/04/27 02:03:48;;;;;;;5.40;2.72;;;;;;;;;;5081838;28;20020;-85
2023/04/27 02:06:14;;;;;;;5.05;2.90;;;;;;;;;;5069981;28;20032;-85
2023/04/27 02:08:39;;;;;;;6.53;3.10;;;;;;;;;;5073404;28;20503;-83
2023/04/27 02:11:07;;;;;;;7.07;3.15;;;;;;;;;;5066541;28;20037;-85
2023/04/27 02:13:33;;;;;;;5.03;2.80;;;;;;;;;;5045831;28;20087;-86
2023/04/27 02:16:00;;;;;;;6.00;3.00;;;;;;;;;;5066013;28;20083;-85
2023/04/27 02:18:26;;;;;;;4.13;2.60;;;;;;;;;;5066999;28;20432;-85
2023/04/27 02:20:52;;;;;;;4.15;2.63;;;;;;;;;;5073468;28;20024;-84
2023/04/27 02:23:17;;;;;;;4.95;2.85;;;;;;;;;;5069931;28;20390;-84
2023/04/27 02:25:45;;;;;;;7.28;3.10;;;;;;;;;;5060445;28;20410;-83
2023/04/27 02:28:12;;;;;;;4.57;2.95;;;;;;;;;;5066529;28;20040;-84
2023/04/27 02:30:38;;;;;;;4.60;3.00;;;;;;;;;;5051435;28;20398;-84
2023/04/27 02:33:04;;;;;;;5.00;3.20;;;;;;;;;;5071460;28;20039;-85
2023/04/27 02:35:32;;;;;;;5.65;3.20;;;;;;;;;;5075357;28;20033;-83
2023/04/27 02:37:58;;;;;;;5.50;3.30;;;;;;;;;;5060089;28;20020;-87
2023/04/27 02:40:24;;;;;;;6.20;3.33;;;;;;;;;;5064767;28;20047;-87
2023/04/27 02:42:50;;;;;;;5.45;2.80;;;;;;;;;;5073769;28;20040;-87
2023/04/27 02:45:15;;;;;;;5.18;2.72;;;;;;;;;;5078797;28;20047;-86
2023/04/27 02:47:41;;;;;;;5.22;2.88;;;;;;;;;;5067016;28;20033;-85
2023/04/27 02:50:07;;;;;;;5.85;2.95;;;;;;;;;;5069917;28;20387;-85
2023/04/27 02:52:34;;;;;;;5.22;2.90;;;;;;;;;;5060317;28;20028;-84
2023/04/27 02:54:59;;;;;;;4.05;2.85;;;;;;;;;;5081025;28;20032;-83
2023/04/27 02:57:26;;;;;;;5.28;2.92;;;;;;;;;;5068784;28;20028;-83
2023/04/27 02:59:52;;;;;;;4.32;2.80;;;;;;;;;;5072280;28;20035;-85
2023/04/27 03:02:17;;;;;;;4.78;2.97;;;;;;;;;;5065851;28;20020;-84
2023/04/27 03:04:43;;;;;;;4.53;2.80;;;;;;;;;;5073894;28;20476;-84
2023/04/27 03:07:08;;;;;;;5.07;2.92;;;;;;;;;;5063449;28;20110;-84
2023/04/27 03:09:35;;;;;;;6.72;3.97;;;;;;;;;;5068103;28;20024;-85
2023/04/27 03:12:01;;;;;;;5.80;3.63;;;;;;;;;;5070806;28;20028;-85
2023/04/27 03:14:27;;;;;;;9.10;4.97;;;;;;;;;;5064185;28;20098;-84
2023/04/27 03:16:54;;;;;;;8.30;4.32;;;;;;;;;;5058198;28;20115;-84
2023/04/27 03:19:20;;;;;;;6.43;3.70;;;;;;;;;;5078425;28;20025;-84
2023/04/27 03:21:45;;;;;;;3.90;3.20;;;;;;;;;;5066136;28;20036;-84
2023/04/27 03:24:10;;;;;;;8.98;3.33;;;;;;;;;;5072139;28;20074;-85
2023/04/27 03:26:36;;;;;;;5.55;2.92;;;;;;;;;;5067506;28;20060;-85
2023/04/27 03:29:02;;;;;;;6.70;3.00;;;;;;;;;;5058318;28;20031;-84
2023/04/27 03:31:28;;;;;;;4.13;2.70;;;;;;;;;;5058564;28;20024;-85
2023/04/27 03:33:53;;;;;;;6.07;2.70;;;;;;;;;;5066221;28;20028;-83
2023/04/27 03:36:21;;;;;;;4.25;2.60;;;;;;;;;;5068597;28;20036;-83
2023/04/27 03:38:46;;;;;;;6.05;2.92;;;;;;;;;;5073232;28;20032;-85
2023/04/27 03:41:12;;;;;;;6.63;3.20;;;;;;;;;;5063013;28;20078;-84
2023/04/27 03:43:37;;;;;;;5.47;3.10;;;;;;;;;;5068143;28;20119;-85
2023/04/27 03:46:03;;;;;;;3.60;2.53;;;;;;;;;;5090121;28;20066;-86
2023/04/27 03:48:28;;;;;;;5.05;2.90;;;;;;;;;;5078486;28;20032;-85
2023/04/27 03:50:54;;;;;;;4.65;2.80;;;;;;;;;;5076869;28;20041;-85
2023/04/27 03:53:20;;;;;;;5.95;2.70;;;;;;;;;;5067094;28;20060;-84
2023/04/27 03:55:46;;;;;;;6.30;3.53;;;;;;;;;;5060351;28;20483;-83
2023/04/27 03:58:13;;;;;;;4.07;2.85;;;;;;;;;;5053601;28;20047;-83
2023/04/27 04:00:58;;;;;;;4.68;2.60;;;;;;;;;;5066455;28;20070;-83
2023/04/27 04:03:24;;;;;;;4.32;2.60;;;;;;;;;;5053660;28;20032;-83
2023/04/27 04:05:50;;;;;;;4.53;2.83;;;;;;;;;;5062601;28;20017;-84
2023/04/27 04:08:15;;;;;;;3.65;2.42;;;;;;;;;;5058179;28;20070;-84
2023/04/27 04:10:41;;;;;;;4.00;2.40;;;;;;;;;;5062323;28;20029;-85
2023/04/27 04:13:08;;;;;;;7.18;2.85;;;;;;;;;;5066399;28;20041;-84
2023/04/27 04:15:35;;;;;;;5.93;2.65;;;;;;;;;;5070236;28;20037;-84
2023/04/27 04:18:01;;;;;;;6.97;2.60;;;;;;;;;;5063581;28;20030;-84
2023/04/27 04:20:27;;;;;;;3.63;2.60;;;;;;;;;;5057052;28;20051;-85
2023/04/27 04:22:53;;;;;;;4.00;2.65;;;;;;;;;;5043838;28;20115;-85
2023/04/27 04:25:19;;;;;;;5.32;3.20;;;;;;;;;;5056685;28;20409;-85
2023/04/27 04:27:47;;;;;;;7.47;3.10;;;;;;;;;;5075135;28;20053;-85
2023/04/27 04:30:13;;;;;;;6.15;2.88;;;;;;;;;;5077432;28;20040;-85
2023/04/27 04:32:40;;;;;;;4.57;3.00;;;;;;;;;;5098452;28;20047;-85
2023/04/27 04:35:06;;;;;;;5.60;3.40;;;;;;;;;;5071845;28;20029;-84
2023/04/27 04:37:34;;;;;;;7.47;3.20;;;;;;;;;;5066209;28;20037;-85
2023/04/27 04:40:02;;;;;;;8.02;3.20;;;;;;;;;;5069218;28;20047;-85
2023/04/27 04:42:28;;;;;;;5.25;3.40;;;;;;;;;;5062503;28;20055;-85
2023/04/27 04:44:54;;;;;;;16.60;7.65;;;;;;;;;;5057333;28;20394;-85
2023/04/27 04:47:20;;;;;;;32.35;12.18;;;;;;;;;;5075412;28;20036;-83
2023/04/27 04:49:45;;;;;;;21.40;9.75;;;;;;;;;;5070200;28;20155;-84
2023/04/27 04:52:11;;;;;;;12.93;6.45;;;;;;;;;;5050359;28;20116;-84
2023/04/27 04:54:37;;;;;;;10.35;5.85;;;;;;;;;;5062661;28;20026;-84
2023/04/27 04:57:02;;;;;;;14.55;6.07;;;;;;;;;;5086242;28;20049;-84
2023/04/27 04:59:32;;;;;;;13.23;6.55;;;;;;;;;;5070984;28;20051;-85
2023/04/27 05:01:58;;;;;;;14.00;7.70;;;;;;;;;;5073129;28;20056;-84
2023/04/27 05:04:23;;;;;;;10.02;5.40;;;;;;;;;;5092199;28;20033;-83
2023/04/27 05:06:49;;;;;;;7.00;4.07;;;;;;;;;;5080158;28;20082;-84
2023/04/27 05:09:14;;;;;;;5.93;3.80;;;;;;;;;;5071982;28;20100;-86
2023/04/27 05:11:43;;;;;;;6.32;3.80;;;;;;;;;;5074413;28;20096;-85
2023/04/27 05:14:08;;;;;;;6.00;3.80;;;;;;;;;;5060524;28;20040;-83
2023/04/27 05:16:34;;;;;;;7.50;3.53;;;;;;;;;;5077061;28;20051;-86
2023/04/27 05:18:59;;;;;;;7.30;3.60;;;;;;;;;;5096316;28;20108;-86
2023/04/27 05:21:25;;;;;;;6.28;3.92;;;;;;;;;;5080164;28;20043;-86
2023/04/27 05:23:50;;;;;;;8.23;4.00;;;;;;;;;;5073735;28;20044;-86
2023/04/27 05:26:17;;;;;;;6.13;4.10;;;;;;;;;;5046582;28;20037;-84
2023/04/27 05:28:43;;;;;;;5.82;3.92;;;;;;;;;;5071168;28;20051;-86
2023/04/27 05:31:09;;;;;;;9.60;6.13;;;;;;;;;;5071108;28;20030;-85
2023/04/27 05:33:35;;;;;;;9.07;6.65;;;;;;;;;;5057711;28;20166;-85
2023/04/27 05:36:01;;;;;;;9.68;5.38;;;;;;;;;;5078992;28;20032;-86
2023/04/27 05:38:26;;;;;;;9.68;5.78;;;;;;;;;;5082146;28;20051;-85
2023/04/27 05:40:56;;;;;;;11.70;6.05;;;;;;;;;;5073545;28;20044;-85
2023/04/27 05:43:22;;;;;;;10.73;6.43;;;;;;;;;;5048979;28;20045;-85
2023/04/27 05:45:48;;;;;;;8.95;5.30;;;;;;;;;;5053929;28;20044;-85
2023/04/27 05:48:13;;;;;;;7.85;4.80;;;;;;;;;;5057731;28;20025;-85
2023/04/27 05:50:39;;;;;;;10.40;4.60;;;;;;;;;;5079556;28;20561;-84
2023/04/27 05:53:05;;;;;;;30.98;11.18;;;;;;;;;;5081447;28;20056;-84
2023/04/27 05:55:30;;;;;;;21.92;11.35;;;;;;;;;;5065573;28;20045;-86
2023/04/27 05:57:56;;;;;;;33.22;20.05;;;;;;;;;;5074564;28;20028;-85
2023/04/27 06:00:21;;;;;;;14.55;7.03;;;;;;;;;;5065500;28;20092;-85
2023/04/27 06:02:47;;;;;;;8.30;4.75;;;;;;;;;;5072582;28;20119;-84
2023/04/27 06:05:13;;;;;;;7.70;4.00;;;;;;;;;;5073298;28;20056;-86
2023/04/27 06:07:38;;;;;;;6.45;4.20;;;;;;;;;;5073103;28;20040;-86
2023/04/27 06:10:05;;;;;;;5.85;3.50;;;;;;;;;;5069951;28;20525;-84
2023/04/27 06:12:31;;;;;;;9.65;4.57;;;;;;;;;;5073106;28;20048;-85
2023/04/27 06:14:56;;;;;;;7.22;4.00;;;;;;;;;;5046711;28;20064;-84
2023/04/27 06:17:22;;;;;;;7.28;3.75;;;;;;;;;;5050286;28;20036;-84
2023/04/27 06:19:47;;;;;;;7.38;4.00;;;;;;;;;;5051727;28;20037;-85
2023/04/27 06:22:13;;;;;;;7.78;3.85;;;;;;;;;;5054967;28;20045;-86
2023/04/27 06:24:38;;;;;;;6.35;3.80;;;;;;;;;;5057943;28;20045;-85
2023/04/27 06:27:04;;;;;;;5.85;3.40;;;;;;;;;;5073978;28;20037;-85
2023/04/27 06:29:30;;;;;;;4.75;3.15;;;;;;;;;;5064534;28;20033;-86
2023/04/27 06:31:55;;;;;;;9.07;3.85;;;;;;;;;;5066910;28;20087;-84
2023/04/27 06:34:21;;;;;;;5.43;3.30;;;;;;;;;;5052197;28;20029;-85
2023/04/27 06:36:46;;;;;;;9.27;3.20;;;;;;;;;;5073180;28;20079;-85
2023/04/27 06:39:12;;;;;;;79.57;8.50;;;;;;;;;;5074825;28;20037;-85
2023/04/27 06:41:37;;;;;;;8.88;3.80;;;;;;;;;;5061109;28;20044;-84
2023/04/27 06:44:03;;;;;;;9.43;4.22;;;;;;;;;;5096794;28;20075;-84
2023/04/27 06:46:28;;;;;;;6.70;3.90;;;;;;;;;;5069924;28;20040;-85
2023/04/27 06:48:53;;;;;;;6.78;3.90;;;;;;;;;;5082093;28;20063;-84
2023/04/27 06:51:19;;;;;;;7.28;3.95;;;;;;;;;;5065269;28;20452;-86
2023/04/27 06:53:44;;;;;;;6.32;4.00;;;;;;;;;;5068817;28;20036;-85
2023/04/27 06:56:11;;;;;;;6.55;3.60;;;;;;;;;;5049953;28;20029;-86
2023/04/27 06:58:36;;;;;;;6.57;3.60;;;;;;;;;;5066497;28;20052;-85
2023/04/27 07:01:03;;;;;;;8.63;3.85;;;;;;;;;;5074160;28;20115;-83
2023/04/27 07:03:30;;;;;;;6.03;3.50;;;;;;;;;;5062080;28;20483;-85
2023/04/27 07:05:56;;;;;;;8.30;3.80;;;;;;;;;;5063473;28;20037;-85
2023/04/27 07:08:22;;;;;;;5.82;3.67;;;;;;;;;;5068917;28;20048;-85
2023/04/27 07:10:47;;;;;;;10.57;3.40;;;;;;;;;;5069563;28;20052;-85
2023/04/27 07:13:13;;;;;;;8.65;3.95;;;;;;;;;;5073250;28;20395;-84
2023/04/27 07:15:38;;;;;;;5.97;3.53;;;;;;;;;;5091999;28;20729;-85
2023/04/27 07:18:04;;;;;;;6.78;3.70;;;;;;;;;;5076224;28;20037;-86
2023/04/27 07:20:29;;;;;;;7.30;4.05;;;;;;;;;;5063137;28;20063;-85
2023/04/27 07:22:55;;;;;;;8.73;4.20;;;;;;;;;;5081589;28;20568;-86
2023/04/27 07:25:21;;;;;;;8.85;4.60;;;;;;;;;;5068507;28;20035;-85
2023/04/27 07:27:46;;;;;;;7.45;3.92;;;;;;;;;;5067392;28;20070;-86
2023/04/27 07:30:13;;;;;;;10.15;3.92;;;;;;;;;;5074800;28;20044;-86
2023/04/27 07:32:42;;;;;;;7.47;3.97;;;;;;;;;;5075592;28;20051;-84
2023/04/27 07:35:08;;;;;;;8.68;3.88;;;;;;;;;;5043763;28;20052;-84
2023/04/27 07:37:36;;;;;;;9.80;3.97;;;;;;;;;;5054328;28;20041;-85
2023/04/27 07:40:04;;;;;;;8.13;3.65;;;;;;;;;;5066119;28;20051;-84
2023/04/27 07:42:30;;;;;;;7.82;3.97;;;;;;;;;;5065757;28;20438;-85
2023/04/27 07:44:56;;;;;;;9.48;4.45;;;;;;;;;;5050784;28;20035;-85
2023/04/27 07:47:21;;;;;;;9.10;3.80;;;;;;;;;;5069239;28;20517;-84
2023/04/27 07:49:47;;;;;;;9.07;3.85;;;;;;;;;;5072583;28;20066;-85
2023/04/27 07:52:13;;;;;;;5.95;3.72;;;;;;;;;;5066226;28;20055;-86
2023/04/27 07:54:39;;;;;;;5.35;3.20;;;;;;;;;;5063647;28;20139;-84
2023/04/27 07:57:12;;;;;;;7.10;3.55;;;;;;;;;;5079017;28;20135;-86
2023/04/27 07:59:38;;;;;;;6.85;3.13;;;;;;;;;;5069602;28;20118;-85
2023/04/27 08:02:03;;;;;;;5.50;3.30;;;;;;;;;;5079701;28;20100;-85
2023/04/27 08:04:29;;;;;;;7.63;3.25;;;;;;;;;;5076837;28;20088;-85
2023/04/27 08:06:55;;;;;;;7.40;3.00;;;;;;;;;;5080367;28;20045;-85
2023/04/27 08:09:20;;;;;;;5.18;3.00;;;;;;;;;;5063554;28;20175;-86
2023/04/27 08:11:46;;;;;;;7.97;3.38;;;;;;;;;;5065228;28;20032;-86
2023/04/27 08:14:14;;;;;;;5.30;2.78;;;;;;;;;;5066927;28;20139;-86
2023/04/27 08:16:41;;;;;;;7.63;2.83;;;;;;;;;;5068540;28;20376;-84
2023/04/27 08:19:08;;;;;;;6.40;3.20;;;;;;;;;;5073508;28;20123;-86
2023/04/27 08:21:37;;;;;;;7.75;3.20;;;;;;;;;;5075908;28;20086;-87
2023/04/27 08:24:03;;;;;;;7.00;3.38;;;;;;;;;;5075403;28;20040;-85
2023/04/27 08:26:29;;;;;;;6.47;3.53;;;;;;;;;;5060241;28;20485;-85
2023/04/27 08:28:58;;;;;;;5.68;3.40;;;;;;;;;;5064453;28;20020;-84
2023/04/27 08:31:25;;;;;;;9.65;3.42;;;;;;;;;;5082290;28;20576;-85
2023/04/27 08:33:53;;;;;;;8.10;5.00;;;;;;;;;;5063037;28;20028;-84
2023/04/27 08:36:26;;;;;;;6.97;4.35;;;;;;;;;;5064236;28;20041;-84
2023/04/27 08:38:52;;;;;;;8.13;3.92;;;;;;;;;;5068228;28;20494;-84
2023/04/27 08:41:22;;;;;;;9.63;4.13;;;;;;;;;;5058334;28;20510;-84
2023/04/27 08:43:52;;;;;;;7.05;4.00;;;;;;;;;;5064444;28;20048;-83
2023/04/27 08:46:27;;;;;;;9.43;4.35;;;;;;;;;;5062164;28;20710;-84
2023/04/27 08:48:53;;;;;;;9.57;4.60;;;;;;;;;;5068887;28;20044;-85
2023/04/27 08:51:20;;;;;;;11.13;4.32;;;;;;;;;;5072480;28;20410;-85
2023/04/27 08:53:51;;;;;;;8.18;4.55;;;;;;;;;;5076314;28;20543;-86
2023/04/27 08:56:18;;;;;;;9.63;4.18;;;;;;;;;;5072460;28;20037;-85
2023/04/27 08:58:43;;;;;;;9.60;4.18;;;;;;;;;;5063110;28;20051;-86
2023/04/27 09:01:09;;;;;;;6.88;4.13;;;;;;;;;;5065493;28;20034;-85
2023/04/27 09:03:35;;;;;;;11.02;3.75;;;;;;;;;;5071642;28;20033;-85
2023/04/27 09:06:04;;;;;;;11.05;4.03;;;;;;;;;;5076552;28;20085;-84
2023/04/27 09:08:43;;;;;;;6.93;3.30;;;;;;;;;;5073361;28;20040;-85
2023/04/27 09:11:09;;;;;;;7.53;3.53;;;;;;;;;;5073499;28;20021;-86
2023/04/27 09:13:39;;;;;;;8.95;3.55;;;;;;;;;;5053411;28;20525;-84
2023/04/27 09:16:04;;;;;;;6.30;3.70;;;;;;;;;;5042767;28;20033;-84
2023/04/27 09:18:34;;;;;;;6.75;3.35;;;;;;;;;;5043859;28;20076;-85
2023/04/27 09:21:00;;;;;;;4.95;3.10;;;;;;;;;;5046133;28;20091;-84
2023/04/27 09:23:32;;;;;;;4.70;3.40;;;;;;;;;;5069512;28;20494;-84
2023/04/27 09:26:00;;;;;;;5.05;3.42;;;;;;;;;;5069480;28;20040;-84
2023/04/27 09:28:27;;;;;;;5.20;3.08;;;;;;;;;;5075588;28;20033;-83
2023/04/27 09:30:58;;;;;;;6.13;2.83;;;;;;;;;;5041171;28;20483;-84
2023/04/27 09:33:24;;;;;;;6.47;3.17;;;;;;;;;;5039338;28;20037;-84
2023/04/27 09:35:50;;;;;;;6.03;3.75;;;;;;;;;;5026266;28;20561;-83
2023/04/27 09:38:20;;;;;;;5.88;3.50;;;;;;;;;;5053115;28;20087;-83
2023/04/27 09:40:47;;;;;;;6.20;3.30;;;;;;;;;;5066983;28;20078;-86
2023/04/27 09:43:14;;;;;;;5.40;3.30;;;;;;;;;;5047241;28;20037;-82
2023/04/27 09:45:39;;;;;;;6.28;3.25;;;;;;;;;;5071665;28;20048;-85
2023/04/27 09:48:05;;;;;;;4.93;3.10;;;;;;;;;;5056952;28;20041;-87
2023/04/27 09:50:35;;;;;;;6.45;3.20;;;;;;;;;;5057805;28;20048;-84
2023/04/27 09:53:04;;;;;;;12.88;3.78;;;;;;;;;;5063016;28;20040;-86
2023/04/27 09:55:35;;;;;;;7.80;3.75;;;;;;;;;;5067547;28;20041;-85
2023/04/27 09:58:22;;;;;;;5.30;3.10;;;;;;;;;;5079214;28;20047;-87
2023/04/27 10:01:20;;;;;;;6.85;3.45;;;;;;;;;;5065153;28;20039;-85
2023/04/27 10:04:02;;;;;;;9.63;3.22;;;;;;;;;;5063453;28;20064;-85
2023/04/27 10:06:49;;;;;;;6.40;3.33;;;;;;;;;;5069326;28;20087;-84
2023/04/27 10:09:22;;;;;;;4.93;3.00;;;;;;;;;;5062643;28;20090;-82
2023/04/27 10:11:48;;;;;;;8.02;4.18;;;;;;;;;;5065809;28;20040;-84
2023/04/27 10:14:22;;;;;;;11.45;3.72;;;;;;;;;;5065852;28;20759;-85
2023/04/27 10:16:57;;;;;;;7.50;3.38;;;;;;;;;;5074399;28;20040;-86
2023/04/27 10:19:24;;;;;;;6.43;3.03;;;;;;;;;;5062313;28;20040;-84
2023/04/27 10:21:55;;;;;;;5.70;3.15;;;;;;;;;;5041385;28;20061;-84
2023/04/27 10:24:37;;;;;;;6.72;3.08;;;;;;;;;;5062348;28;20036;-84
2023/04/27 10:27:05;;;;;;;6.13;2.80;;;;;;;;;;5062452;28;20082;-86
2023/04/27 10:29:35;;;;;;;6.75;2.85;;;;;;;;;;5065470;28;20044;-84
2023/04/27 10:32:05;;;;;;;4.03;2.75;;;;;;;;;;5048084;28;20032;-85
2023/04/27 10:34:35;;;;;;;7.00;3.08;;;;;;;;;;5088917;28;20076;-84
2023/04/27 10:37:08;;;;;;;6.10;3.03;;;;;;;;;;5070058;28;20036;-83
2023/04/27 10:39:37;;;;;;;4.38;2.83;;;;;;;;;;5058049;28;20037;-84
2023/04/27 10:42:02;;;;;;;6.30;3.35;;;;;;;;;;5061450;28;20494;-85
2023/04/27 10:44:30;;;;;;;6.57;3.30;;;;;;;;;;5066606;28;20116;-84
2023/04/27 10:46:59;;;;;;;7.60;2.83;;;;;;;;;;5051472;28;20286;-86
2023/04/27 10:49:29;;;;;;;4.78;3.28;;;;;;;;;;5071303;28;20074;-86
2023/04/27 10:51:57;;;;;;;5.80;2.88;;;;;;;;;;5063213;28;20524;-85
2023/04/27 10:54:27;;;;;;;5.45;3.22;;;;;;;;;;5052989;28;20037;-85
2023/04/27 10:56:54;;;;;;;4.95;2.90;;;;;;;;;;5059816;28;20066;-84
2023/04/27 10:59:20;;;;;;;7.32;3.20;;;;;;;;;;5066964;28;20051;-85
2023/04/27 11:01:50;;;;;;;12.38;6.40;;;;;;;;;;5071155;28;20095;-84
2023/04/27 11:04:17;;;;;;;7.85;4.20;;;;;;;;;;5057888;28;20036;-86
2023/04/27 11:06:44;;;;;;;6.47;3.67;;;;;;;;;;5079063;28;20037;-85
2023/04/27 11:09:11;;;;;;;10.38;3.35;;;;;;;;;;5070411;28;20055;-83
2023/04/27 11:11:37;;;;;;;5.55;3.30;;;;;;;;;;5057739;28;20037;-84
2023/04/27 11:14:02;;;;;;;6.10;3.10;;;;;;;;;;5059883;28;20080;-83
2023/04/27 11:16:30;;;;;;;5.40;2.80;;;;;;;;;;5066365;28;20617;-85
2023/04/27 11:19:02;;;;;;;6.95;2.90;;;;;;;;;;5085883;28;20032;-84
2023/04/27 11:21:28;;;;;;;6.25;2.75;;;;;;;;;;5053170;28;20098;-83
2023/04/27 11:23:54;;;;;;;6.47;2.90;;;;;;;;;;5067579;28;20041;-84
2023/04/27 11:26:22;;;;;;;5.47;2.83;;;;;;;;;;5042440;28;20025;-84
2023/04/27 11:29:04;;;;;;;5.88;2.55;;;;;;;;;;5062626;28;20040;-85
2023/04/27 11:31:46;;;;;;;8.05;3.13;;;;;;;;;;5062477;28;20025;-86
2023/04/27 11:34:16;;;;;;;6.50;4.25;;;;;;;;;;5067764;28;20092;-85
2023/04/27 11:36:41;;;;;;;5.15;2.97;;;;;;;;;;5072298;28;20490;-85
2023/04/27 11:39:10;;;;;;;5.85;2.80;;;;;;;;;;5075139;28;20039;-84
2023/04/27 11:41:36;;;;;;;6.25;3.30;;;;;;;;;;5063418;28;20037;-84
2023/04/27 11:44:10;;;;;;;4.25;2.58;;;;;;;;;;5062110;28;20140;-85
2023/04/27 11:46:36;;;;;;;4.40;2.85;;;;;;;;;;5066263;28;20037;-84
2023/04/27 11:49:03;;;;;;;8.48;2.75;;;;;;;;;;5068818;28;20033;-85
2023/04/27 11:51:33;;;;;;;4.85;2.63;;;;;;;;;;5073491;28;20039;-86
2023/04/27 11:54:03;;;;;;;5.15;3.00;;;;;;;;;;5074968;28;20036;-86
2023/04/27 11:56:40;;;;;;;5.75;3.03;;;;;;;;;;5075247;28;20040;-85
2023/04/27 11:59:16;;;;;;;4.97;2.83;;;;;;;;;;5060273;28;20048;-86
2023/04/27 12:01:42;;;;;;;3.92;2.63;;;;;;;;;;5080150;28;20043;-85
2023/04/27 12:04:07;;;;;;;5.78;2.65;;;;;;;;;;5066905;28;20045;-85
2023/04/27 12:06:33;;;;;;;5.07;2.90;;;;;;;;;;5068485;28;20064;-82
2023/04/27 12:08:58;;;;;;;10.77;2.95;;;;;;;;;;5075827;28;20024;-85
2023/04/27 12:11:27;;;;;;;4.82;3.10;;;;;;;;;;5054778;28;20807;-85
2023/04/27 12:13:53;;;;;;;4.70;2.40;;;;;;;;;;5063344;28;20071;-85
2023/04/27 12:16:22;;;;;;;5.55;2.50;;;;;;;;;;5055964;28;20033;-84
2023/04/27 12:18:49;;;;;;;5.05;2.50;;;;;;;;;;5057172;28;20033;-84
2023/04/27 12:21:15;;;;;;;5.10;2.13;;;;;;;;;;5059067;28;20028;-83
2023/04/27 12:23:41;;;;;;;9.90;2.28;;;;;;;;;;5073309;28;20032;-83
2023/04/27 12:26:06;;;;;;;5.15;2.08;;;;;;;;;;5071521;28;20425;-85
2023/04/27 12:28:32;;;;;;;11.15;2.50;;;;;;;;;;5073605;28;20044;-84
2023/04/27 12:30:57;;;;;;;4.90;2.00;;;;;;;;;;5061749;28;20037;-83
2023/04/27 12:33:23;;;;;;;13.80;2.38;;;;;;;;;;5058835;28;20036;-85
2023/04/27 12:35:49;;;;;;;7.05;2.38;;;;;;;;;;5084735;22;20048;-88
2023/04/27 12:38:14;;;;;;;8.15;1.98;;;;;;;;;;5058880;28;20087;-88
2023/04/27 12:40:40;;;;;;;5.30;2.00;;;;;;;;;;5065974;28;20036;-88
2023/04/27 12:43:07;;;;;;;3.72;1.90;;;;;;;;;;5061643;28;20040;-89
2023/04/27 12:45:32;;;;;;;6.03;1.80;;;;;;;;;;5051022;28;20041;-88
2023/04/27 12:47:58;;;;;;;12.32;2.15;;;;;;;;;;5024971;28;20042;-88
2023/04/27 12:50:23;;;;;;;11.07;2.28;;;;;;;;;;5021694;28;20033;-87
2023/04/27 12:52:50;;;;;;;9.75;1.88;;;;;;;;;;5031377;28;20041;-88
2023/04/27 12:55:15;;;;;;;4.22;1.80;;;;;;;;;;5027524;28;20501;-87
2023/04/27 12:57:41;;;;;;;3.13;1.50;;;;;;;;;;5026211;28;20049;-87
2023/04/27 13:00:09;;;;;;;4.43;1.90;;;;;;;;;;5026812;28;20095;-86
2023/04/27 13:02:35;;;;;;;5.47;2.10;;;;;;;;;;5030468;28;20080;-87
2023/04/27 13:05:02;;;;;;;5.05;2.03;;;;;;;;;;5031961;28;20037;-89
2023/04/27 13:07:28;;;;;;;3.95;2.00;;;;;;;;;;5028615;28;20132;-87
2023/04/27 13:09:53;;;;;;;3.17;1.80;;;;;;;;;;5038497;28;20191;-87
2023/04/27 13:12:19;;;;;;;6.07;2.10;;;;;;;;;;5046236;28;20033;-87
2023/04/27 13:14:45;;;;;;;3.60;2.10;;;;;;;;;;5017920;28;20034;-87
2023/04/27 13:17:11;;;;;;;4.78;2.20;;;;;;;;;;5017601;28;20065;-84
2023/04/27 13:19:36;;;;;;;4.47;2.03;;;;;;;;;;5016332;28;20037;-89
2023/04/27 13:22:02;;;;;;;3.97;2.17;;;;;;;;;;5018918;28;20109;-86
2023/04/27 13:24:28;;;;;;;4.32;1.90;;;;;;;;;;5036803;28;20030;-86
2023/04/27 13:26:54;;;;;;;3.53;1.90;;;;;;;;;;5025835;28;20113;-87
2023/04/27 13:29:20;;;;;;;6.53;2.00;;;;;;;;;;5031847;28;20061;-85
2023/04/27 13:31:46;;;;;;;6.85;2.05;;;;;;;;;;5021224;28;20084;-84
2023/04/27 13:34:12;;;;;;;4.25;1.95;;;;;;;;;;5021865;28;20093;-86
2023/04/27 13:36:37;;;;;;;6.50;2.33;;;;;;;;;;5021708;28;20038;-87
2023/04/27 13:39:03;;;;;;;4.22;2.30;;;;;;;;;;5022592;28;20038;-87
2023/04/27 13:41:30;;;;;;;5.55;2.40;;;;;;;;;;5026542;28;20036;-87
2023/04/27 13:43:55;;;;;;;4.65;2.03;;;;;;;;;;5022904;28;20083;-85
2023/04/27 13:46:21;;;;;;;5.68;2.10;;;;;;;;;;5016716;28;20523;-88
2023/04/27 13:48:46;;;;;;;3.88;2.00;;;;;;;;;;5024259;28;20037;-85
2023/04/27 13:51:12;;;;;;;4.38;1.80;;;;;;;;;;5029429;28;20092;-87
2023/04/27 13:53:37;;;;;;;4.57;1.88;;;;;;;;;;5034446;28;20101;-87
2023/04/27 13:56:03;;;;;;;4.60;2.10;;;;;;;;;;5036475;28;20029;-87
2023/04/27 13:58:29;;;;;;;4.82;2.50;;;;;;;;;;5040288;28;20108;-87
2023/04/27 14:00:54;;;;;;;4.07;2.20;;;;;;;;;;5030085;28;20041;-86
2023/04/27 14:03:21;;;;;;;4.50;2.25;;;;;;;;;;5028462;28;20033;-86
2023/04/27 14:05:52;;;;;;;3.90;2.22;;;;;;;;;;5034420;28;20029;-87
2023/04/27 14:08:18;;;;;;;3.75;2.13;;;;;;;;;;5035482;28;20396;-87
2023/04/27 14:10:44;;;;;;;4.85;1.98;;;;;;;;;;5049368;28;20041;-87
2023/04/27 14:13:10;;;;;;;4.63;2.30;;;;;;;;;;5033961;28;20045;-88
2023/04/27 14:15:36;;;;;;;3.30;2.00;;;;;;;;;;5042825;28;20128;-90
2023/04/27 14:18:06;;;;;;;3.28;2.05;;;;;;;;;;5027774;28;20069;-89
2023/04/27 14:20:33;;;;;;;2.85;1.83;;;;;;;;;;5032043;28;20041;-88
2023/04/27 14:23:00;;;;;;;4.90;2.25;;;;;;;;;;5030461;28;20045;-88
2023/04/27 14:25:31;;;;;;;5.22;2.20;;;;;;;;;;5035739;28;20093;-88
2023/04/27 14:27:57;;;;;;;3.10;2.00;;;;;;;;;;5040083;28;20038;-88
2023/04/27 14:30:22;;;;;;;7.10;2.25;;;;;;;;;;5027394;28;20443;-89
2023/04/27 14:32:51;;;;;;;3.35;2.17;;;;;;;;;;5023609;28;20093;-88
2023/04/27 14:35:19;;;;;;;3.75;1.80;;;;;;;;;;5028725;28;20048;-89
2023/04/27 14:37:44;;;;;;;3.67;1.67;;;;;;;;;;5045944;28;20403;-87
2023/04/27 14:40:10;;;;;;;4.68;2.03;;;;;;;;;;5030316;28;20037;-89